Time;durP1;ratioP1;P1;durP2;ratioP2;P2;SDS_P1;SDS_P2;PMS_P1;PMS_P2;Temp;Humidity;BMP_temperature;BMP_pressure;BME280_temperature;BME280_humidity;BME280_pressure;Samples;Min_cycle;Max_cycle;Signal;HPM_P1;HPM_P2
2022/05/10 00:00:50;;;;;;;;;15.33;15.00;;;;;21.69;44.62;101724.94;5041285;28;45264;-86
2022/05/10 00:03:17;;;;;;;;;17.00;14.33;;;;;21.73;44.47;101739.16;5037484;28;45536;-81
2022/05/10 00:05:43;;;;;;;;;13.67;13.67;;;;;21.54;45.20;101703.50;5045401;28;45590;-81
2022/05/10 00:08:14;;;;;;;;;12.67;12.67;;;;;21.57;44.46;101716.88;5045802;28;46836;-80
2022/05/10 00:10:41;;;;;;;;;15.00;14.67;;;;;21.67;44.78;101729.63;5053997;28;45508;-81
2022/05/10 00:13:07;;;;;;;;;10.33;10.33;;;;;21.54;45.14;101715.25;5040075;28;45563;-80
2022/05/10 00:15:33;;;;;;;;;16.00;14.67;;;;;21.61;44.94;101727.38;5051445;28;45599;-81
2022/05/10 00:17:59;;;;;;;;;19.00;16.00;;;;;21.47;45.16;101700.41;5046962;28;45563;-81
2022/05/10 00:20:25;;;;;;;;;11.67;11.33;;;;;21.55;44.63;101726.97;5043538;28;45432;-80
2022/05/10 00:22:52;;;;;;;;;17.33;16.00;;;;;21.37;45.29;101699.31;5047328;28;45767;-81
2022/05/10 00:25:26;;;;;;;;;12.67;12.00;;;;;21.47;45.39;101717.56;5041644;28;45297;-79
2022/05/10 00:27:58;;;;;;;;;14.67;13.67;;;;;21.34;45.66;101700.41;5037450;28;45396;-81
2022/05/10 00:30:24;;;;;;;;;14.33;12.00;;;;;21.37;45.33;101711.03;5037743;28;45512;-80
2022/05/10 00:32:51;;;;;;;;;14.67;13.67;;;;;21.39;45.66;101716.34;5047579;28;45432;-80
2022/05/10 00:35:29;;;;;;;;;15.33;14.67;;;;;21.36;46.25;101713.88;5040112;28;45591;-79
2022/05/10 00:37:58;;;;;;;;;17.33;15.33;;;;;21.33;46.15;101719.50;5037788;28;46252;-79
2022/05/10 00:40:31;;;;;;;;;15.00;14.00;;;;;21.31;45.83;101711.50;5049423;28;45643;-79
2022/05/10 00:43:05;;;;;;;;;12.00;12.00;;;;;21.24;46.07;101697.53;5069815;28;45406;-79
2022/05/10 00:46:04;;;;;;;;;14.67;14.33;;;;;21.23;46.28;101706.63;5077790;28;45408;-79
2022/05/10 00:48:51;;;;;;;;;18.00;15.67;;;;;21.20;46.75;101700.56;5073894;28;45350;-79
2022/05/10 00:51:42;;;;;;;;;13.67;13.67;;;;;21.18;46.40;101695.25;5077131;28;45500;-79
2022/05/10 00:54:19;;;;;;;;;15.67;13.67;;;;;21.11;46.94;101693.09;5074995;28;45594;-79
2022/05/10 00:56:49;;;;;;;;;17.33;15.00;;;;;21.14;47.29;101698.28;5067330;28;45438;-79
2022/05/10 00:59:21;;;;;;;;;14.33;14.33;;;;;21.08;46.88;101695.06;5064778;28;46554;-79
2022/05/10 01:01:52;;;;;;;;;20.67;15.67;;;;;21.05;47.47;101697.16;5060752;28;45500;-79
2022/05/10 01:04:39;;;;;;;;;16.00;13.33;;;;;20.99;46.99;101692.16;5063299;28;46591;-79
2022/05/10 01:07:13;;;;;;;;;11.33;11.33;;;;;20.96;47.08;101690.53;5063193;28;45427;-79
2022/05/10 01:09:57;;;;;;;;;21.00;18.00;;;;;20.96;47.42;101698.66;5071024;28;45489;-79
2022/05/10 01:12:28;;;;;;;;;16.67;15.67;;;;;20.91;47.42;101689.13;5057066;28;45433;-79
2022/05/10 01:14:56;;;;;;;;;24.33;18.33;;;;;20.86;47.67;101686.75;5038557;28;45413;-79
2022/05/10 01:17:22;;;;;;;;;15.00;14.00;;;;;20.74;47.62;101669.53;5059167;28;45480;-79
2022/05/10 01:19:47;;;;;;;;;17.00;15.67;;;;;20.68;47.69;101659.16;5076784;28;46126;-79
2022/05/10 01:22:21;;;;;;;;;15.67;13.67;;;;;20.77;48.25;101679.31;5070814;28;47594;-79
2022/05/10 01:25:17;;;;;;;;;18.00;15.67;;;;;20.74;48.02;101679.50;5076536;28;45331;-79
2022/05/10 01:28:04;;;;;;;;;23.00;19.00;;;;;20.73;48.04;101685.91;5064703;28;45733;-79
2022/05/10 01:30:31;;;;;;;;;16.67;15.67;;;;;20.63;48.74;101661.31;5055655;28;46066;-79
2022/05/10 01:35:58;;;;;;;;;18.67;15.67;;;;;20.65;48.85;101667.50;5036521;28;45399;-79
2022/05/10 01:38:35;;;;;;;;;16.00;16.00;;;;;20.59;48.95;101657.97;5044461;28;45550;-79
2022/05/10 01:41:11;;;;;;;;;20.00;18.67;;;;;20.38;49.00;101638.66;5067899;28;46422;-79
2022/05/10 01:43:51;;;;;;;;;23.00;18.00;;;;;20.46;48.97;101648.94;5052158;28;45486;-79
2022/05/10 01:46:27;;;;;;;;;20.33;18.67;;;;;20.47;48.87;101649.81;5065551;28;45453;-79
2022/05/10 01:49:03;;;;;;;;;15.33;15.33;;;;;20.51;49.33;101660.31;5061864;28;45411;-79
2022/05/10 01:51:39;;;;;;;;;20.00;19.00;;;;;20.50;49.19;101661.28;5063307;28;46076;-79
2022/05/10 01:54:36;;;;;;;;;19.33;18.00;;;;;20.42;49.19;101650.16;5056307;28;45355;-79
2022/05/10 01:57:03;;;;;;;;;20.67;16.67;;;;;20.43;49.54;101650.00;5053885;28;45563;-79
2022/05/10 01:59:28;;;;;;;;;19.33;18.00;;;;;20.44;49.29;101659.03;5045810;28;45410;-79
2022/05/10 02:01:56;;;;;;;;;19.67;17.67;;;;;20.42;49.82;101653.72;5070116;28;45342;-79
2022/05/10 02:04:30;;;;;;;;;20.33;19.00;;;;;20.40;49.50;101646.69;5056290;28;45582;-79
2022/05/10 02:07:05;;;;;;;;;24.00;20.67;;;;;20.40;49.69;101649.38;5059693;28;45385;-79
2022/05/10 02:09:42;;;;;;;;;21.67;21.00;;;;;20.34;49.87;101642.53;5067419;28;45787;-79
2022/05/10 02:12:18;;;;;;;;;26.00;21.67;;;;;20.40;50.01;101647.53;5071028;28;45601;-79
2022/05/10 02:15:00;;;;;;;;;25.67;21.33;;;;;20.36;50.12;101646.00;5067872;28;45426;-79
2022/05/10 02:17:37;;;;;;;;;18.67;17.33;;;;;20.35;50.32;101643.44;5057950;28;45385;-79
2022/05/10 02:20:21;;;;;;;;;23.67;22.33;;;;;20.30;50.10;101629.31;5070134;28;45492;-79
2022/05/10 02:22:59;;;;;;;;;23.00;23.00;;;;;20.31;50.49;101640.06;5067981;28;46994;-79
2022/05/10 02:25:31;;;;;;;;;25.00;23.67;;;;;20.35;50.43;101640.72;5058509;28;45363;-79
2022/05/10 02:28:05;;;;;;;;;22.00;19.33;;;;;20.24;50.30;101620.66;5065970;28;45649;-79
2022/05/10 02:30:35;;;;;;;;;24.00;24.00;;;;;20.36;50.78;101637.88;5047506;28;45338;-79
2022/05/10 02:33:07;;;;;;;;;24.00;23.00;;;;;20.38;50.58;101635.94;5051523;28;47078;-79
2022/05/10 02:35:34;;;;;;;;;24.67;21.67;;;;;20.37;50.42;101639.63;5075757;28;45450;-79
2022/05/10 02:38:00;;;;;;;;;20.00;20.00;;;;;20.30;50.86;101613.97;5073254;28;45453;-79
2022/05/10 02:40:26;;;;;;;;;23.67;22.00;;;;;20.39;50.92;101623.25;5071984;28;45480;-79
2022/05/10 02:42:51;;;;;;;;;21.67;19.33;;;;;20.44;50.35;101627.41;5064210;28;45437;-79
2022/05/10 02:45:20;;;;;;;;;19.67;19.67;;;;;20.47;50.54;101629.00;5063299;28;45512;-79
2022/05/10 02:47:48;;;;;;;;;22.33;21.67;;;;;20.37;50.85;101612.56;5063801;28;45362;-79
2022/05/10 02:50:25;;;;;;;;;25.67;23.67;;;;;20.40;50.72;101612.34;5070916;28;45404;-79
2022/05/10 02:52:51;;;;;;;;;23.50;22.50;;;;;20.44;50.88;101615.69;5071737;28;45537;-79
2022/05/10 02:55:23;;;;;;;;;26.00;22.33;;;;;20.49;50.64;101620.78;5059951;28;45398;-79
2022/05/10 02:57:52;;;;;;;;;21.00;21.00;;;;;20.34;50.35;101595.66;5048728;28;45410;-79
2022/05/10 03:00:20;;;;;;;;;18.00;17.00;;;;;20.50;51.14;101620.66;5059795;28;45555;-79
2022/05/10 03:02:50;;;;;;;;;22.00;17.33;;;;;20.53;50.83;101622.28;5071424;28;46477;-79
2022/05/10 03:05:15;;;;;;;;;19.67;16.00;;;;;20.51;51.04;101607.97;5059730;28;45386;-79
2022/05/10 03:07:41;;;;;;;;;18.67;18.67;;;;;20.55;50.78;101607.66;5065053;28;45688;-79
2022/05/10 03:10:07;;;;;;;;;17.00;16.67;;;;;20.52;51.01;101607.03;5065429;28;45508;-79
2022/05/10 03:12:33;;;;;;;;;21.33;21.33;;;;;20.55;51.09;101606.78;5062812;28;46362;-79
2022/05/10 03:14:58;;;;;;;;;24.00;18.67;;;;;20.53;50.99;101600.59;5062395;28;45394;-79
2022/05/10 03:17:24;;;;;;;;;23.33;19.33;;;;;20.52;50.65;101594.34;5064444;28;45354;-79
2022/05/10 03:19:49;;;;;;;;;19.00;17.33;;;;;20.58;50.93;101604.78;5061359;28;45687;-79
2022/05/10 03:22:15;;;;;;;;;22.00;19.67;;;;;20.60;51.06;101599.22;5066127;28;45789;-79
2022/05/10 03:24:40;;;;;;;;;21.33;17.67;;;;;20.57;50.89;101585.91;5067628;28;45555;-79
2022/05/10 03:27:08;;;;;;;;;22.33;19.67;;;;;20.62;50.36;101595.41;5057614;28;47569;-79
2022/05/10 03:29:34;;;;;;;;;22.67;21.33;;;;;20.35;50.31;101548.66;5041802;28;45584;-79
2022/05/10 03:32:00;;;;;;;;;21.33;17.33;;;;;20.55;50.33;101572.44;5061594;28;46005;-79
2022/05/10 03:37:09;;;;;;;;;21.67;19.00;;;;;20.43;50.43;101544.41;5061634;28;45602;-79
2022/05/10 03:39:35;;;;;;;;;23.33;22.00;;;;;20.69;50.41;101579.59;5058431;28;45310;-79
2022/05/10 03:42:02;;;;;;;;;21.33;21.33;;;;;20.63;50.37;101571.94;5046160;28;46424;-79
2022/05/10 03:44:31;;;;;;;;;26.33;22.00;;;;;20.70;50.10;101583.16;5068204;28;45551;-79
2022/05/10 03:46:56;;;;;;;;;16.67;16.00;;;;;20.70;50.19;101580.44;5068045;28;45427;-79
2022/05/10 03:49:21;;;;;;;;;20.33;19.67;;;;;20.70;49.67;101578.63;5063470;28;45501;-79
2022/05/10 03:51:46;;;;;;;;;9.33;9.33;;;;;20.56;49.61;101551.69;5073353;28;45949;-79
2022/05/10 03:54:12;;;;;;;;;21.33;19.33;;;;;20.70;49.79;101570.50;5062174;28;53117;-79
2022/05/10 03:56:37;;;;;;;;;13.33;13.00;;;;;20.70;49.93;101580.44;5078131;28;46618;-79
2022/05/10 03:59:03;;;;;;;;;24.00;22.67;;;;;20.69;49.92;101568.75;5066689;28;45493;-79
2022/05/10 04:01:28;;;;;;;;;19.33;18.00;;;;;20.72;49.58;101573.09;5057392;28;46087;-79
2022/05/10 04:03:53;;;;;;;;;26.33;22.67;;;;;20.74;49.80;101573.84;5057767;28;45402;-79
2022/05/10 04:06:19;;;;;;;;;17.67;16.33;;;;;20.76;49.25;101580.88;5057793;28;45694;-79
2022/05/10 04:08:45;;;;;;;;;23.67;22.00;;;;;20.78;48.73;101578.06;5058304;28;45552;-79
2022/05/10 04:11:12;;;;;;;;;17.33;16.67;;;;;20.62;48.32;101543.09;5057543;28;45361;-79
2022/05/10 04:13:39;;;;;;;;;19.33;19.33;;;;;20.83;49.09;101576.72;5057456;28;45394;-79
2022/05/10 04:16:05;;;;;;;;;17.33;17.33;;;;;20.79;49.15;101561.69;5057126;28;45389;-78
2022/05/10 04:18:31;;;;;;;;;10.67;10.67;;;;;20.71;49.17;101538.84;5039269;28;45700;-79
2022/05/10 04:20:56;;;;;;;;;23.00;20.67;;;;;20.88;48.76;101568.25;5057254;28;46416;-79
2022/05/10 04:23:22;;;;;;;;;17.33;16.00;;;;;20.76;48.60;101551.06;5049145;28;45411;-79
2022/05/10 04:25:48;;;;;;;;;19.33;18.00;;;;;20.88;48.80;101565.56;5056053;28;45536;-79
2022/05/10 04:28:14;;;;;;;;;17.00;17.00;;;;;20.90;48.58;101566.31;5056968;28;45477;-79
2022/05/10 04:30:39;;;;;;;;;17.33;17.33;;;;;20.84;48.80;101556.81;5060089;28;46322;-79
2022/05/10 04:33:04;;;;;;;;;18.67;18.33;;;;;20.75;48.81;101534.94;5059326;28;45425;-79
2022/05/10 04:35:30;;;;;;;;;20.00;18.33;;;;;20.77;49.07;101547.41;5058093;28;45661;-79
2022/05/10 04:37:55;;;;;;;;;22.00;18.67;;;;;20.90;49.09;101568.16;5074260;28;45594;-78
2022/05/10 04:43:05;;;;;;;;;20.33;19.33;;;;;20.92;48.95;101566.19;5073306;28;45386;-79
2022/05/10 04:45:33;;;;;;;;;23.00;20.00;;;;;20.93;48.78;101571.53;5068727;28;45423;-79
2022/05/10 04:47:59;;;;;;;;;19.33;17.67;;;;;20.77;49.34;101543.81;5069030;28;45657;-79
2022/05/10 04:50:24;;;;;;;;;24.67;22.00;;;;;20.76;48.48;101533.94;5064131;28;45854;-79
2022/05/10 04:52:49;;;;;;;;;21.00;21.00;;;;;20.88;48.64;101552.00;5065784;28;45762;-79
2022/05/10 04:55:15;;;;;;;;;23.00;19.00;;;;;20.95;48.57;101565.97;5054794;28;45434;-79
2022/05/10 04:57:41;;;;;;;;;15.67;14.33;;;;;21.01;48.37;101576.38;5058763;28;45437;-79
2022/05/10 05:00:10;;;;;;;;;18.33;15.67;;;;;20.93;48.67;101559.78;5061586;28;46340;-79
2022/05/10 05:02:36;;;;;;;;;21.00;19.33;;;;;21.05;48.44;101570.59;5046953;28;45378;-79
2022/05/10 05:05:02;;;;;;;;;15.33;14.67;;;;;21.08;48.50;101564.94;5058612;28;45591;-79
2022/05/10 05:07:27;;;;;;;;;18.67;18.67;;;;;21.11;48.79;101566.56;5071967;28;45650;-79
2022/05/10 05:09:53;;;;;;;;;20.00;15.67;;;;;21.13;47.43;101571.88;5064348;28;46207;-79
2022/05/10 05:12:18;;;;;;;;;18.33;16.33;;;;;21.16;47.16;101561.63;5065472;28;45451;-79
2022/05/10 05:14:43;;;;;;;;;15.33;14.67;;;;;21.13;45.93;101558.31;5067637;28;45720;-79
2022/05/10 05:17:09;;;;;;;;;11.67;10.33;;;;;21.18;45.57;101564.25;5059893;28;45349;-79
2022/05/10 05:19:34;;;;;;;;;11.00;11.00;;;;;21.24;45.01;101563.78;5075900;28;45354;-79
2022/05/10 05:22:00;;;;;;;;;9.33;9.33;;;;;21.21;45.18;101554.06;5068332;28;45351;-79
2022/05/10 05:24:25;;;;;;;;;10.00;10.00;;;;;21.29;44.75;101564.31;5055594;28;45548;-79
2022/05/10 05:26:52;;;;;;;;;13.00;10.67;;;;;21.32;43.95;101561.34;5072030;28;45553;-79
2022/05/10 05:29:18;;;;;;;;;11.00;11.00;;;;;21.37;44.08;101564.56;5059218;28;46143;-79
2022/05/10 05:31:44;;;;;;;;;9.00;8.33;;;;;21.41;43.52;101559.81;5071231;28;45370;-79
2022/05/10 05:34:09;;;;;;;;;6.67;6.67;;;;;21.43;43.64;101566.84;5055752;28;45448;-79
2022/05/10 05:36:35;;;;;;;;;10.00;10.00;;;;;21.47;43.72;101571.06;5050485;28;46692;-79
2022/05/10 05:39:00;;;;;;;;;11.00;10.00;;;;;21.47;43.12;101570.22;5059275;28;48558;-80
2022/05/10 05:41:25;;;;;;;;;8.67;8.67;;;;;21.44;43.39;101559.56;5058179;28;45493;-79
2022/05/10 05:43:50;;;;;;;;;11.00;9.00;;;;;21.32;43.53;101527.94;5071127;28;45368;-79
2022/05/10 05:46:19;;;;;;;;;9.33;8.67;;;;;21.35;43.24;101535.84;5054729;28;45594;-79
2022/05/10 05:48:44;;;;;;;;;12.67;9.00;;;;;21.52;42.63;101550.84;5054112;28;45499;-80
2022/05/10 05:51:10;;;;;;;;;12.00;8.67;;;;;21.62;43.06;101573.59;5055920;28;45421;-80
2022/05/10 05:53:35;;;;;;;;;10.67;10.67;;;;;21.65;43.24;101570.63;5055690;28;45714;-79
2022/05/10 05:56:08;;;;;;;;;13.33;11.67;;;;;21.72;43.39;101569.16;5059903;28;45416;-81
2022/05/10 05:58:35;;;;;;;;;8.00;8.00;;;;;21.75;42.44;101574.38;5058627;28;47015;-82
2022/05/10 06:01:00;;;;;;;;;8.33;8.33;;;;;21.74;42.94;101566.34;5056317;28;45507;-82
2022/05/10 06:03:25;;;;;;;;;14.00;10.50;;;;;21.69;42.67;101550.41;5054543;28;45496;-80
2022/05/10 06:05:51;;;;;;;;;11.67;11.33;;;;;21.78;42.03;101563.28;5061447;28;45435;-84
2022/05/10 06:08:18;;;;;;;;;10.00;10.00;;;;;21.74;42.70;101550.06;5050372;28;47201;-84
2022/05/10 06:10:44;;;;;;;;;10.00;10.00;;;;;21.71;42.01;101537.59;5040336;28;45354;-86
2022/05/10 06:13:09;;;;;;;;;12.67;11.00;;;;;21.96;42.57;101570.94;5069268;28;45410;-83
2022/05/10 06:15:36;;;;;;;;;11.00;9.00;;;;;22.00;42.60;101580.59;5066721;28;45217;-83
2022/05/10 06:18:04;;;;;;;;;8.67;8.33;;;;;21.84;42.28;101541.06;5073921;28;46717;-84
2022/05/10 06:20:30;;;;;;;;;11.67;11.67;;;;;22.11;41.78;101572.47;5071629;28;45200;-84
2022/05/10 06:22:55;;;;;;;;;13.00;12.00;;;;;22.16;42.23;101572.94;5066960;28;45504;-80
2022/05/10 06:25:23;;;;;;;;;13.67;12.67;;;;;22.21;42.11;101576.19;5066912;28;45538;-82
2022/05/10 06:27:51;;;;;;;;;9.67;9.67;;;;;22.28;42.02;101565.72;5063990;28;45955;-81
2022/05/10 06:30:17;;;;;;;;;10.00;10.00;;;;;22.33;41.99;101561.63;5062184;28;45621;-82
2022/05/10 06:32:43;;;;;;;;;11.33;10.00;;;;;22.40;41.43;101570.16;5059330;28;45356;-83
2022/05/10 06:35:09;;;;;;;;;7.67;6.33;;;;;22.35;41.91;101550.66;5066043;28;45556;-84
2022/05/10 06:40:19;;;;;;;;;12.00;8.67;;;;;22.53;41.34;101560.03;5068361;28;45466;-87
2022/05/10 06:42:45;;;;;;;;;13.00;10.67;;;;;22.17;41.33;101497.78;5046881;28;45509;-87
2022/05/10 06:45:15;;;;;;;;;13.67;11.67;;;;;22.63;40.66;101576.44;5045644;28;45594;-82
2022/05/10 06:47:42;;;;;;;;;12.33;10.33;;;;;22.69;40.49;101564.22;5046788;28;47346;-83
2022/05/10 06:50:12;;;;;;;;;11.33;9.67;;;;;22.42;40.45;101508.41;5048990;28;45287;-84
2022/05/10 06:52:37;;;;;;;;;12.50;12.50;;;;;22.51;40.86;101529.41;5069472;28;45447;-83
2022/05/10 06:55:04;;;;;;;;;11.33;8.67;;;;;22.84;40.77;101568.38;5049465;28;45397;-83
2022/05/10 06:57:29;;;;;;;;;10.00;10.00;;;;;22.52;40.83;101497.66;5047629;28;47187;-86
2022/05/10 06:59:54;;;;;;;;;11.00;11.00;;;;;22.91;40.26;101556.00;5066976;28;45546;-82
2022/05/10 07:02:21;;;;;;;;;13.00;11.33;;;;;22.77;40.79;101529.09;5060565;28;45453;-83
2022/05/10 07:04:46;;;;;;;;;12.00;12.00;;;;;22.95;40.51;101543.03;5064334;28;45438;-83
2022/05/10 07:07:12;;;;;;;;;9.00;9.00;;;;;22.90;40.28;101523.53;5065142;28;46070;-82
2022/05/10 07:09:37;;;;;;;;;11.33;9.33;;;;;23.09;40.01;101550.94;5058238;28;46821;-81
2022/05/10 07:12:03;;;;;;;;;9.00;9.00;;;;;23.20;39.76;101555.44;5051739;28;45418;-81
2022/05/10 07:14:28;;;;;;;;;10.67;10.67;;;;;23.14;40.58;101542.38;5044064;28;45740;-83
2022/05/10 07:16:54;;;;;;;;;13.00;11.00;;;;;23.07;40.63;101522.13;5064161;28;46007;-84
2022/05/10 07:19:19;;;;;;;;;12.00;11.00;;;;;23.08;40.31;101521.13;5042518;28;45911;-84
2022/05/10 07:21:45;;;;;;;;;14.00;11.00;;;;;22.94;40.45;101498.69;5048393;28;45540;-83
2022/05/10 07:24:11;;;;;;;;;12.00;10.00;;;;;23.18;40.68;101528.41;5066271;27;45509;-84
2022/05/10 07:26:36;;;;;;;;;10.67;9.33;;;;;23.38;40.45;101553.88;5061955;27;46286;-83
2022/05/10 07:29:01;;;;;;;;;12.33;12.33;;;;;23.15;39.99;101504.16;5066556;28;46201;-90
2022/05/10 07:31:27;;;;;;;;;10.67;10.00;;;;;23.24;39.83;101507.09;5037001;28;45588;-89
2022/05/10 07:33:52;;;;;;;;;10.33;10.33;;;;;23.19;40.08;101504.78;5052222;28;45472;-91
2022/05/10 07:36:23;;;;;;;;;12.33;11.00;;;;;23.32;40.33;101520.91;5042754;28;48155;-89
2022/05/10 07:38:49;;;;;;;;;13.00;11.33;;;;;23.45;40.32;101531.59;5043830;28;45827;-90
2022/05/10 07:41:18;;;;;;;;;10.67;10.00;;;;;23.23;40.16;101497.22;5060509;28;45517;-90
2022/05/10 07:43:44;;;;;;;;;9.00;9.00;;;;;23.17;40.24;101493.16;5051044;28;46563;-91
2022/05/10 07:46:10;;;;;;;;;10.67;10.67;;;;;23.38;39.90;101518.53;5044448;28;47299;-89
2022/05/10 07:48:36;;;;;;;;;12.00;12.00;;;;;23.60;40.50;101552.94;5062905;28;45462;-90
2022/05/10 07:51:02;;;;;;;;;12.00;12.00;;;;;23.60;40.67;101543.91;5064390;28;45470;-90
2022/05/10 07:53:28;;;;;;;;;9.67;9.33;;;;;23.68;40.81;101540.50;5065291;28;45572;-87
2022/05/10 07:55:53;;;;;;;;;10.67;10.00;;;;;23.30;41.06;101473.94;5050339;28;48357;-90
2022/05/10 07:58:19;;;;;;;;;10.33;10.33;;;;;23.48;40.73;101472.31;5065609;28;46383;-88
2022/05/10 08:00:45;;;;;;;;;13.00;11.33;;;;;23.55;40.30;101461.78;5051781;28;45578;-89
2022/05/10 08:03:19;;;;;;;;;13.00;11.33;;;;;23.70;38.99;101475.91;5041701;28;45711;-89
2022/05/10 08:05:46;;;;;;;;;9.67;9.67;;;;;24.35;38.93;101560.97;5057546;28;45333;-90
2022/05/10 08:08:12;;;;;;;;;11.33;11.00;;;;;24.47;38.92;101559.94;5042713;28;45518;-89
2022/05/10 08:10:41;;;;;;;;;10.33;10.33;;;;;24.30;39.16;101528.69;5052360;28;45404;-89
2022/05/10 08:13:14;;;;;;;;;11.00;11.00;;;;;24.33;38.99;101527.56;5061164;28;45636;-89
2022/05/10 08:15:41;;;;;;;;;15.33;12.67;;;;;24.50;39.07;101542.44;5058124;28;46424;-89
2022/05/10 08:18:07;;;;;;;;;12.00;12.00;;;;;24.51;38.70;101531.38;5063723;28;45597;-89
2022/05/10 08:20:33;;;;;;;;;11.00;11.00;;;;;24.64;39.23;101547.50;5037558;28;45559;-88
2022/05/10 08:22:58;;;;;;;;;11.33;10.67;;;;;24.64;38.98;101548.34;5063299;28;45427;-88
2022/05/10 08:25:24;;;;;;;;;13.67;12.00;;;;;24.62;38.56;101533.13;5045266;28;49337;-81
2022/05/10 08:27:49;;;;;;;;;13.00;11.00;;;;;24.80;38.23;101544.25;5058276;28;45821;-81
2022/05/10 08:30:15;;;;;;;;;11.00;9.33;;;;;25.04;38.37;101546.56;5051810;28;45465;-83
2022/05/10 08:32:42;;;;;;;;;16.00;9.00;;;;;24.88;37.73;101497.16;5067903;28;45521;-85
2022/05/10 08:35:08;;;;;;;;;11.33;10.33;;;;;25.05;36.84;101510.09;5045708;28;47142;-86
2022/05/10 08:37:36;;;;;;;;;10.33;9.00;;;;;25.42;37.20;101555.78;5063078;28;45532;-86
2022/05/10 08:40:22;;;;;;;;;13.00;12.00;;;;;25.52;37.13;101551.22;5050203;28;45377;-88
2022/05/10 08:42:51;;;;;;;;;9.33;8.67;;;;;25.63;36.33;101545.56;5033962;28;45518;-86
2022/05/10 08:45:24;;;;;;;;;11.33;10.00;;;;;25.42;36.57;101491.16;5050927;28;46078;-86
2022/05/10 08:47:50;;;;;;;;;11.67;10.00;;;;;25.51;35.79;101488.56;5017998;28;45547;-85
2022/05/10 08:50:16;;;;;;;;;10.00;10.00;;;;;26.25;35.46;101510.50;5037497;28;45359;-82
2022/05/10 08:52:45;;;;;;;;;8.33;8.33;;;;;27.23;34.35;101537.28;5038288;28;45514;-82
2022/05/10 08:55:15;;;;;;;;;7.67;7.67;;;;;28.07;33.57;101542.22;5041643;28;46162;-82
2022/05/10 08:57:59;;;;;;;;;7.67;7.67;;;;;28.76;31.66;101545.00;5040872;28;45811;-82
2022/05/10 09:00:30;;;;;;;;;7.67;7.67;;;;;29.32;31.01;101535.16;5043565;28;45477;-81
2022/05/10 09:02:57;;;;;;;;;23.33;20.00;;;;;29.65;30.49;101516.78;5042774;28;45530;-82
2022/05/10 09:05:28;;;;;;;;;25.00;22.00;;;;;30.12;30.70;101537.16;5037706;28;46580;-83
2022/05/10 09:08:25;;;;;;;;;9.33;8.00;;;;;30.54;29.59;101532.41;5038542;28;45640;-83
2022/05/10 09:10:53;;;;;;;;;8.00;8.00;;;;;30.77;28.58;101526.97;5037250;28;45438;-80
2022/05/10 09:13:21;;;;;;;;;7.00;7.00;;;;;31.02;28.74;101527.66;5042063;28;45631;-84
2022/05/10 09:15:54;;;;;;;;;8.33;6.67;;;;;31.06;27.91;101529.03;5015781;28;47305;-85
2022/05/10 09:18:26;;;;;;;;;7.00;7.00;;;;;30.85;28.08;101535.19;5032892;28;45474;-85
2022/05/10 09:20:55;;;;;;;;;9.00;8.67;;;;;30.61;28.16;101531.50;5023405;28;45388;-85
2022/05/10 09:23:55;;;;;;;;;7.67;7.67;;;;;30.34;29.09;101535.56;5033860;28;45406;-86
2022/05/10 09:26:24;;;;;;;;;10.67;8.00;;;;;30.16;28.48;101524.78;5039716;28;46247;-85
2022/05/10 09:29:05;;;;;;;;;8.00;8.00;;;;;29.98;28.73;101500.25;5037466;28;45402;-85
2022/05/10 09:37:29;;;;;;;;;7.00;7.00;;;;;30.38;28.33;101509.41;5043187;28;45771;-83
2022/05/10 09:39:57;;;;;;;;;7.67;7.67;;;;;30.71;27.63;101526.63;5016540;28;45824;-85
2022/05/10 09:42:32;;;;;;;;;5.00;5.00;;;;;31.10;27.28;101508.34;5061022;28;45382;-86
2022/05/10 09:45:04;;;;;;;;;6.00;6.00;;;;;31.64;25.85;101491.72;5067110;28;45564;-87
2022/05/10 09:47:30;;;;;;;;;10.00;8.00;;;;;31.97;26.00;101485.88;5047070;28;47154;-84
2022/05/10 09:50:17;;;;;;;;;6.00;6.00;;;;;32.64;25.16;101503.31;5066151;28;45457;-83
2022/05/10 09:52:44;;;;;;;;;9.67;5.67;;;;;32.47;25.00;101420.72;5056486;28;45254;-85
2022/05/10 09:55:21;;;;;;;;;9.33;8.00;;;;;33.50;24.27;101489.53;5056981;28;45509;-82
2022/05/10 09:57:49;;;;;;;;;6.00;6.00;;;;;34.17;23.44;101444.72;5068625;28;45466;-82
2022/05/10 10:00:15;;;;;;;;;7.00;7.00;;;;;35.14;22.33;101492.53;5074923;28;45480;-82
2022/05/10 10:02:43;;;;;;;;;6.00;6.00;;;;;35.21;22.66;101500.84;5059794;28;45426;-82
2022/05/10 10:05:23;;;;;;;;;7.00;7.00;;;;;35.19;22.26;101489.13;5064664;28;45299;-82
2022/05/10 10:07:54;;;;;;;;;6.00;6.00;;;;;35.48;22.29;101482.31;5052555;28;47482;-85
2022/05/10 10:10:31;;;;;;;;;6.00;6.00;;;;;36.66;21.11;101492.50;5057964;28;45513;-86
2022/05/10 10:12:58;;;;;;;;;6.00;6.00;;;;;38.01;19.00;101489.31;5048632;28;45472;-84
2022/05/10 10:15:40;;;;;;;;;5.00;5.00;;;;;39.51;18.75;101451.38;5074439;28;45477;-84
2022/05/10 10:18:09;;;;;;;;;5.00;5.00;;;;;41.30;16.21;101491.41;5048083;28;47370;-85
2022/05/10 10:20:50;;;;;;;;;6.00;5.67;;;;;41.82;16.00;101422.19;5044126;28;45543;-86
2022/05/10 10:23:30;;;;;;;;;7.33;6.00;;;;;42.23;15.35;101492.81;5071564;28;45473;-86
2022/05/10 10:26:00;;;;;;;;;5.33;5.33;;;;;43.56;14.50;101478.19;5057982;28;45583;-83
2022/05/10 10:28:31;;;;;;;;;9.67;6.00;;;;;45.03;12.93;101486.69;5069771;28;45510;-83
2022/05/10 10:31:05;;;;;;;;;6.33;5.33;;;;;46.08;12.49;101462.59;5048114;28;46099;-84
2022/05/10 10:33:41;;;;;;;;;7.00;6.00;;;;;47.14;12.10;101477.19;5051735;28;45279;-82
2022/05/10 10:36:14;;;;;;;;;6.00;5.00;;;;;47.84;10.93;101470.28;5064733;28;45477;-83
2022/05/10 10:38:58;;;;;;;;;6.00;4.67;;;;;48.68;10.80;101489.56;5048918;28;48473;-83
2022/05/10 10:42:00;;;;;;;;;7.33;4.33;;;;;49.22;10.87;101504.25;5037984;28;45465;-84
2022/05/10 10:44:28;;;;;;;;;3.33;3.33;;;;;49.80;10.56;101505.78;5068883;27;46530;-85
2022/05/10 10:47:22;;;;;;;;;6.67;5.33;;;;;50.04;9.81;101497.06;5046728;28;45571;-84
2022/05/10 10:49:52;;;;;;;;;5.67;5.67;;;;;50.31;9.56;101493.38;5064736;28;46313;-86
2022/05/10 10:52:17;;;;;;;;;4.67;4.67;;;;;50.45;9.28;101499.88;5072627;28;45394;-86
2022/05/10 10:54:44;;;;;;;;;5.00;5.00;;;;;50.74;9.22;101492.97;5070225;28;45341;-86
2022/05/10 10:57:34;;;;;;;;;5.33;4.00;;;;;50.91;9.38;101495.13;5045820;28;45781;-86
2022/05/10 11:00:18;;;;;;;;;6.67;6.00;;;;;50.99;9.32;101491.50;5067240;27;45499;-85
2022/05/10 11:03:05;;;;;;;;;5.00;4.67;;;;;46.90;10.53;101464.94;5062756;28;45507;-84
2022/05/10 11:06:13;;;;;;;;;7.33;7.33;;;;;45.65;11.87;101471.44;5042779;28;45582;-86
2022/05/10 11:08:44;;;;;;;;;4.67;4.67;;;;;45.11;12.18;101465.56;5011649;28;45196;-87
2022/05/10 11:11:39;;;;;;;;;6.33;6.33;;;;;42.61;13.89;101472.25;5020651;28;46466;-84
2022/05/10 11:14:20;;;;;;;;;7.00;4.67;;;;;40.51;15.24;101464.22;5017961;28;45390;-85
2022/05/10 11:17:13;;;;;;;;;8.00;6.33;;;;;39.28;16.47;101454.97;5016563;28;45540;-86
2022/05/10 11:19:48;;;;;;;;;5.67;5.67;;;;;38.57;17.27;101459.50;5029532;28;45467;-87
2022/05/10 11:22:37;;;;;;;;;9.33;8.00;;;;;37.73;17.52;101428.59;5013362;28;46428;-81
2022/05/10 11:25:15;;;;;;;;;6.33;6.33;;;;;37.22;17.95;101433.34;5019124;28;45470;-81
2022/05/10 11:28:23;;;;;;;;;7.00;5.00;;;;;36.74;18.43;101454.19;5014147;28;45541;-81
2022/05/10 11:30:58;;;;;;;;;8.00;6.67;;;;;36.15;19.45;101447.00;5014801;28;45578;-81
2022/05/10 11:33:45;;;;;;;;;4.33;4.33;;;;;35.66;19.42;101449.25;5024378;28;47252;-81
2022/05/10 11:36:30;;;;;;;;;5.33;5.33;;;;;35.29;20.03;101437.75;5018847;28;45483;-80
2022/05/10 11:39:26;;;;;;;;;8.67;8.00;;;;;35.11;19.80;101456.09;5027512;28;45432;-82
2022/05/10 11:42:06;;;;;;;;;5.67;5.67;;;;;34.74;20.84;101425.94;5064761;27;45755;-82
2022/05/10 11:44:50;;;;;;;;;6.00;6.00;;;;;34.52;21.21;101447.41;5065895;28;45558;-82
2022/05/10 11:47:27;;;;;;;;;5.00;5.00;;;;;34.32;21.15;101438.16;5058192;28;45443;-82